createdAt,value
2023-06-07T00:00:41.940Z,21.97
2023-06-07T00:03:08.725Z,21.96
2023-06-07T00:05:35.455Z,21.88
2023-06-07T00:08:03.175Z,21.83
2023-06-07T00:10:29.864Z,21.83
2023-06-07T00:12:58.813Z,21.81
2023-06-07T00:15:25.502Z,21.78
2023-06-07T00:17:52.352Z,21.78
2023-06-07T00:20:19.206Z,21.72
2023-06-07T00:22:45.864Z,21.70
2023-06-07T00:25:13.663Z,21.63
2023-06-07T00:27:40.365Z,21.65
2023-06-07T00:30:07.836Z,21.62
2023-06-07T00:32:34.564Z,21.59
2023-06-07T00:35:01.309Z,21.55
2023-06-07T00:37:28.138Z,21.54
2023-06-07T00:39:54.857Z,21.49
2023-06-07T00:42:21.562Z,21.47
2023-06-07T00:44:48.198Z,21.44
2023-06-07T00:47:16.214Z,21.38
2023-06-07T00:49:44.176Z,21.46
2023-06-07T00:52:11.922Z,21.45
2023-06-07T00:54:38.566Z,21.39
2023-06-07T00:57:05.720Z,21.38
2023-06-07T00:59:32.371Z,21.34
2023-06-07T01:01:59.071Z,21.28
2023-06-07T01:04:25.846Z,21.30
2023-06-07T01:06:52.590Z,21.33
2023-06-07T01:09:19.501Z,21.33
2023-06-07T01:11:48.673Z,21.29
2023-06-07T01:14:15.392Z,21.25
2023-06-07T01:16:42.158Z,21.21
2023-06-07T01:19:08.980Z,21.19
2023-06-07T01:21:35.682Z,21.14
2023-06-07T01:24:02.516Z,21.12
2023-06-07T01:26:29.213Z,21.15
2023-06-07T01:28:55.876Z,21.14
2023-06-07T01:31:23.347Z,21.08
2023-06-07T01:33:50.236Z,21.11
2023-06-07T01:36:16.885Z,21.15
2023-06-07T01:38:43.512Z,21.17
2023-06-07T01:41:10.356Z,21.15
2023-06-07T01:43:37.053Z,21.18
2023-06-07T01:46:03.938Z,21.15
2023-06-07T01:48:30.680Z,21.20
2023-06-07T01:50:57.406Z,21.20
2023-06-07T01:53:24.054Z,21.16
2023-06-07T01:56:00.600Z,21.14
2023-06-07T01:58:40.954Z,21.13
2023-06-07T02:01:22.422Z,21.11
2023-06-07T02:03:53.364Z,21.09
2023-06-07T02:06:29.985Z,21.11
2023-06-07T02:08:56.811Z,21.04
2023-06-07T02:11:23.497Z,21.00
2023-06-07T02:13:50.199Z,20.95
2023-06-07T02:16:17.169Z,20.87
2023-06-07T02:18:43.856Z,20.87
2023-06-07T02:21:10.987Z,20.91
2023-06-07T02:23:38.196Z,20.80
2023-06-07T02:26:04.940Z,20.83
2023-06-07T02:28:31.635Z,20.81
2023-06-07T02:30:58.391Z,20.65
2023-06-07T02:33:25.266Z,20.70
2023-06-07T02:35:52.094Z,20.72
2023-06-07T02:38:18.919Z,20.73
2023-06-07T02:40:45.559Z,20.63
2023-06-07T02:43:12.189Z,20.59
2023-06-07T02:45:39.839Z,20.54
2023-06-07T02:48:06.569Z,20.51
2023-06-07T02:50:33.345Z,20.51
2023-06-07T02:53:00.097Z,20.44
2023-06-07T02:55:26.921Z,20.44
2023-06-07T02:57:53.642Z,20.35
2023-06-07T03:00:20.290Z,20.38
2023-06-07T03:02:47.229Z,20.33
2023-06-07T03:05:14.023Z,20.30
2023-06-07T03:07:40.717Z,20.34
2023-06-07T03:10:07.881Z,20.30
2023-06-07T03:12:34.531Z,20.29
2023-06-07T03:15:01.266Z,20.29
2023-06-07T03:17:28.160Z,20.31
2023-06-07T03:19:55.000Z,20.32
2023-06-07T03:22:21.651Z,20.31
2023-06-07T03:24:48.909Z,20.31
2023-06-07T03:27:15.692Z,20.33
2023-06-07T03:29:42.431Z,20.36
2023-06-07T03:32:09.222Z,20.35
2023-06-07T03:34:35.871Z,20.37
2023-06-07T03:37:02.587Z,20.38
2023-06-07T03:39:29.308Z,20.44
2023-06-07T03:41:55.939Z,20.41
2023-06-07T03:44:22.620Z,20.42
2023-06-07T03:46:49.566Z,20.38
2023-06-07T03:49:17.034Z,20.32
2023-06-07T03:51:43.754Z,20.30
2023-06-07T03:54:10.546Z,20.27
2023-06-07T03:56:37.558Z,20.25
2023-06-07T03:59:04.204Z,20.22
2023-06-07T04:01:30.904Z,20.20
2023-06-07T04:03:57.816Z,20.22
2023-06-07T04:06:24.656Z,20.28
2023-06-07T04:08:51.958Z,20.27
2023-06-07T04:11:19.595Z,20.35
2023-06-07T04:13:46.291Z,20.37
2023-06-07T04:16:13.008Z,20.42
2023-06-07T04:18:39.695Z,20.45
2023-06-07T04:21:06.346Z,20.52
2023-06-07T04:23:33.217Z,20.49
2023-06-07T04:25:59.884Z,20.55
2023-06-07T04:28:26.614Z,20.49
2023-06-07T04:30:53.298Z,20.55
2023-06-07T04:33:20.030Z,20.57
2023-06-07T04:35:47.249Z,20.60
2023-06-07T04:38:15.133Z,20.61
2023-06-07T04:40:42.054Z,20.62
2023-06-07T04:43:08.741Z,20.64
2023-06-07T04:45:38.350Z,20.65
2023-06-07T04:48:05.441Z,20.67
2023-06-07T04:50:32.129Z,20.70
2023-06-07T04:52:58.801Z,20.72
2023-06-07T04:55:25.456Z,20.76
2023-06-07T04:57:52.209Z,20.76
2023-06-07T05:00:19.077Z,20.83
2023-06-07T05:02:45.929Z,20.90
2023-06-07T05:05:12.715Z,20.88
2023-06-07T05:07:41.030Z,20.98
2023-06-07T05:10:08.274Z,21.01
2023-06-07T05:12:35.348Z,21.04
2023-06-07T05:15:01.988Z,21.08
2023-06-07T05:17:28.948Z,21.11
2023-06-07T05:19:58.366Z,21.24
2023-06-07T05:22:25.011Z,21.26
2023-06-07T05:24:51.657Z,21.25
2023-06-07T05:27:18.377Z,21.28
2023-06-07T05:29:45.106Z,21.35
2023-06-07T05:32:11.880Z,21.44
2023-06-07T05:34:38.686Z,21.40
2023-06-07T05:37:06.206Z,21.51
2023-06-07T05:39:32.906Z,21.59
2023-06-07T05:41:59.554Z,21.69
2023-06-07T05:44:26.179Z,21.77
2023-06-07T05:46:53.001Z,21.78
2023-06-07T05:49:19.777Z,21.84
2023-06-07T05:51:46.457Z,21.91
2023-06-07T05:54:13.316Z,21.97
2023-06-07T05:56:40.095Z,22.07
2023-06-07T05:59:06.868Z,22.05
2023-06-07T06:01:33.503Z,22.13
2023-06-07T06:04:00.255Z,22.16
2023-06-07T06:06:26.995Z,22.21
2023-06-07T06:08:53.748Z,22.29
2023-06-07T06:11:20.417Z,22.35
2023-06-07T06:13:47.060Z,22.36
2023-06-07T06:16:13.741Z,22.43
2023-06-07T06:18:42.586Z,22.45
2023-06-07T06:21:09.580Z,22.54
2023-06-07T06:23:36.723Z,22.54
2023-06-07T06:26:03.513Z,22.58
2023-06-07T06:28:30.282Z,22.63
2023-06-07T06:30:58.216Z,22.68
2023-06-07T06:33:24.982Z,22.78
2023-06-07T06:35:51.888Z,22.78
2023-06-07T06:38:18.658Z,22.78
2023-06-07T06:40:45.318Z,22.88
2023-06-07T06:43:12.642Z,22.90
2023-06-07T06:45:39.313Z,22.93
2023-06-07T06:48:06.583Z,22.91
2023-06-07T06:50:34.437Z,22.98
2023-06-07T06:53:01.406Z,23.00
2023-06-07T06:55:28.154Z,23.16
2023-06-07T06:57:55.269Z,23.13
2023-06-07T07:00:22.145Z,23.14
2023-06-07T07:02:48.956Z,23.20
2023-06-07T07:05:15.806Z,23.29
2023-06-07T07:07:42.665Z,23.32
2023-06-07T07:10:09.992Z,23.32
2023-06-07T07:12:37.304Z,23.37
2023-06-07T07:15:04.276Z,23.46
2023-06-07T07:17:31.063Z,23.55
2023-06-07T07:19:57.842Z,23.54
2023-06-07T07:22:26.843Z,23.60
2023-06-07T07:24:56.327Z,23.63
2023-06-07T07:27:23.143Z,23.74
2023-06-07T07:29:49.824Z,23.81
2023-06-07T07:32:16.551Z,23.85
2023-06-07T07:34:43.227Z,23.87
2023-06-07T07:37:10.139Z,23.93
2023-06-07T07:39:36.777Z,23.96
2023-06-07T07:42:03.566Z,23.95
2023-06-07T07:44:30.259Z,23.99
2023-06-07T07:46:56.942Z,24.01
2023-06-07T07:49:23.636Z,24.04
2023-06-07T07:51:51.238Z,24.08
2023-06-07T07:54:17.986Z,24.19
2023-06-07T07:56:44.864Z,24.21
2023-06-07T07:59:12.520Z,24.21
2023-06-07T08:01:39.657Z,24.17
2023-06-07T08:04:06.451Z,24.10
2023-06-07T08:06:33.205Z,24.12
2023-06-07T08:08:59.848Z,24.11
2023-06-07T08:11:26.941Z,24.07
2023-06-07T08:13:53.605Z,23.99
2023-06-07T08:16:20.351Z,24.00
2023-06-07T08:18:49.133Z,24.06
2023-06-07T08:21:16.218Z,24.13
2023-06-07T08:23:42.989Z,24.19
2023-06-07T08:26:09.634Z,24.27
2023-06-07T08:28:36.871Z,24.28
2023-06-07T08:31:03.773Z,24.34
2023-06-07T08:33:31.017Z,24.34
2023-06-07T08:35:57.683Z,24.18
2023-06-07T08:38:24.413Z,24.17
2023-06-07T08:40:54.929Z,24.33
2023-06-07T08:43:21.653Z,24.45
2023-06-07T08:45:50.204Z,24.53
2023-06-07T08:48:17.009Z,24.44
2023-06-07T08:50:47.197Z,24.56
2023-06-07T08:53:14.989Z,24.60
2023-06-07T08:55:45.324Z,24.67
2023-06-07T08:58:11.990Z,24.73
2023-06-07T09:00:38.737Z,24.80
2023-06-07T09:03:06.102Z,24.85
2023-06-07T09:05:32.828Z,24.77
2023-06-07T09:07:59.522Z,24.84
2023-06-07T09:10:26.209Z,24.64
2023-06-07T09:12:53.295Z,24.73
2023-06-07T09:15:21.155Z,24.73
2023-06-07T09:17:51.747Z,24.81
2023-06-07T09:20:27.865Z,24.97
2023-06-07T09:22:58.072Z,25.03
2023-06-07T09:25:25.109Z,25.19
2023-06-07T09:27:51.928Z,25.25
2023-06-07T09:30:18.749Z,25.28
2023-06-07T09:32:45.518Z,25.22
2023-06-07T09:35:16.366Z,25.19
2023-06-07T09:37:44.348Z,25.17
2023-06-07T09:40:11.538Z,25.26
2023-06-07T09:42:38.359Z,25.37
2023-06-07T09:45:11.198Z,25.48
2023-06-07T09:47:38.476Z,25.48
2023-06-07T09:50:09.617Z,25.33
2023-06-07T09:52:37.018Z,25.30
2023-06-07T09:55:04.267Z,25.35
2023-06-07T09:57:33.285Z,25.43
2023-06-07T10:00:07.587Z,25.43
2023-06-07T10:02:34.622Z,25.19
2023-06-07T10:05:01.726Z,25.18
2023-06-07T10:07:34.044Z,25.09
2023-06-07T10:10:00.730Z,25.22
2023-06-07T10:12:28.504Z,25.39
2023-06-07T10:14:55.149Z,25.51
2023-06-07T10:17:26.211Z,25.54
2023-06-07T10:19:52.971Z,25.54
2023-06-07T10:22:24.969Z,25.62
2023-06-07T10:25:00.998Z,25.73
2023-06-07T10:27:28.199Z,25.71
2023-06-07T10:30:11.291Z,25.85
2023-06-07T10:32:39.191Z,25.97
2023-06-07T10:35:15.289Z,26.12
2023-06-07T10:37:43.579Z,26.25
2023-06-07T10:40:10.402Z,26.36
2023-06-07T10:42:38.926Z,26.39
2023-06-07T10:45:06.233Z,26.44
2023-06-07T10:47:32.932Z,26.15
2023-06-07T10:49:59.695Z,26.16
2023-06-07T10:52:26.490Z,25.90
2023-06-07T10:54:53.359Z,25.98
2023-06-07T10:57:33.318Z,26.05
2023-06-07T11:00:25.284Z,26.08
2023-06-07T11:02:52.193Z,26.02
2023-06-07T11:05:19.081Z,26.12
2023-06-07T11:07:45.915Z,26.23
2023-06-07T11:10:18.608Z,26.38
2023-06-07T11:12:45.181Z,26.48
2023-06-07T11:15:18.187Z,26.60
2023-06-07T11:18:00.541Z,26.48
2023-06-07T11:20:36.423Z,26.31
2023-06-07T11:23:31.241Z,26.39
2023-06-07T11:26:08.005Z,26.52
2023-06-07T11:28:35.714Z,26.60
2023-06-07T11:31:02.512Z,26.58
2023-06-07T11:33:30.683Z,26.61
2023-06-07T11:35:57.498Z,26.68
2023-06-07T11:38:25.333Z,26.68
2023-06-07T11:40:52.136Z,26.77
2023-06-07T11:43:23.780Z,26.89
2023-06-07T11:45:50.519Z,27.00
2023-06-07T11:48:17.246Z,27.01
2023-06-07T11:50:44.099Z,27.01
2023-06-07T11:53:13.550Z,26.98
2023-06-07T11:55:40.694Z,26.96
2023-06-07T11:58:07.587Z,26.98
2023-06-07T12:00:36.396Z,26.69
2023-06-07T12:03:04.290Z,26.85
2023-06-07T12:05:31.295Z,26.99
2023-06-07T12:08:04.105Z,27.10
2023-06-07T12:10:30.838Z,27.24
2023-06-07T12:13:12.359Z,27.41
2023-06-07T12:15:43.453Z,27.50
2023-06-07T12:18:18.862Z,27.55
2023-06-07T12:20:46.251Z,27.65
2023-06-07T12:23:13.459Z,27.67
2023-06-07T12:25:40.632Z,27.73
2023-06-07T12:28:07.500Z,27.85
2023-06-07T12:30:35.204Z,27.96
2023-06-07T12:33:02.018Z,28.12
2023-06-07T12:35:39.215Z,28.23
2023-06-07T12:38:11.136Z,28.31
2023-06-07T12:40:38.446Z,28.14
2023-06-07T12:43:05.246Z,28.32
2023-06-07T12:45:31.900Z,28.48
2023-06-07T12:47:58.808Z,28.61
2023-06-07T12:50:25.586Z,28.63
2023-06-07T12:52:52.373Z,28.66
2023-06-07T12:55:19.168Z,28.62
2023-06-07T12:57:49.883Z,28.90
2023-06-07T13:00:17.440Z,28.73
2023-06-07T13:02:44.221Z,28.56
2023-06-07T13:05:11.579Z,28.40
2023-06-07T13:07:39.354Z,28.32
2023-06-07T13:10:07.653Z,28.40
2023-06-07T13:12:34.848Z,28.46
2023-06-07T13:15:01.638Z,28.43
2023-06-07T13:17:28.543Z,28.42
2023-06-07T13:19:55.289Z,28.44
2023-06-07T13:22:22.084Z,28.41
2023-06-07T13:24:48.795Z,28.44
2023-06-07T13:27:15.528Z,28.41
2023-06-07T13:29:42.569Z,28.32
2023-06-07T13:32:09.581Z,28.31
2023-06-07T13:34:36.291Z,28.30
2023-06-07T13:37:02.992Z,28.28
2023-06-07T13:39:29.757Z,28.26
2023-06-07T13:41:56.512Z,28.29
2023-06-07T13:44:23.379Z,28.27
2023-06-07T13:46:50.177Z,28.42
2023-06-07T13:49:16.964Z,28.50
2023-06-07T13:51:44.126Z,28.61
2023-06-07T13:54:10.776Z,28.62
2023-06-07T13:56:38.749Z,28.63
2023-06-07T13:59:05.570Z,28.78
2023-06-07T14:01:32.354Z,28.88
2023-06-07T14:03:59.263Z,29.00
2023-06-07T14:06:28.250Z,29.19
2023-06-07T14:08:55.111Z,29.41
2023-06-07T14:11:21.938Z,29.56
2023-06-07T14:13:48.592Z,29.62
2023-06-07T14:16:16.594Z,29.83
2023-06-07T14:18:44.483Z,29.86
2023-06-07T14:21:12.616Z,29.99
2023-06-07T14:23:39.310Z,30.15
2023-06-07T14:26:06.024Z,30.30
2023-06-07T14:28:32.737Z,30.37
2023-06-07T14:30:59.420Z,30.61
2023-06-07T14:33:26.107Z,30.85
2023-06-07T14:35:52.932Z,31.15
2023-06-07T14:38:19.582Z,31.31
2023-06-07T14:40:46.285Z,31.52
2023-06-07T14:43:15.322Z,31.76
2023-06-07T14:45:42.088Z,32.02
2023-06-07T14:48:08.897Z,32.24
2023-06-07T14:50:35.788Z,32.44
2023-06-07T14:53:02.580Z,32.70
2023-06-07T14:55:29.242Z,32.95
2023-06-07T14:57:55.959Z,33.28
2023-06-07T15:00:22.676Z,33.66
2023-06-07T15:02:49.384Z,33.94
2023-06-07T15:05:16.126Z,34.22
2023-06-07T15:07:42.996Z,34.49
2023-06-07T15:10:09.956Z,34.73
2023-06-07T15:12:36.607Z,35.03
2023-06-07T15:15:03.618Z,35.35
2023-06-07T15:17:30.328Z,35.62
2023-06-07T15:19:57.052Z,35.84
2023-06-07T15:22:23.747Z,35.91
2023-06-07T15:24:50.529Z,36.25
2023-06-07T15:27:17.216Z,36.63
2023-06-07T15:29:44.905Z,36.95
2023-06-07T15:32:13.099Z,37.24
2023-06-07T15:34:44.682Z,37.67
2023-06-07T15:37:11.818Z,37.85
2023-06-07T15:39:38.644Z,37.98
2023-06-07T15:42:05.611Z,38.30
2023-06-07T15:44:32.371Z,38.70
2023-06-07T15:46:59.493Z,38.69
2023-06-07T15:49:27.694Z,38.92
2023-06-07T15:51:54.947Z,39.22
2023-06-07T15:54:21.917Z,39.52
2023-06-07T15:56:48.660Z,39.90
2023-06-07T15:59:16.511Z,39.95
2023-06-07T16:01:44.369Z,39.99
2023-06-07T16:04:11.313Z,40.34
2023-06-07T16:06:38.063Z,40.41
2023-06-07T16:09:04.799Z,40.55
2023-06-07T16:11:31.479Z,40.72
2023-06-07T16:13:58.139Z,40.87
2023-06-07T16:16:24.966Z,40.99
2023-06-07T16:18:53.198Z,41.06
2023-06-07T16:21:20.254Z,40.88
2023-06-07T16:23:48.628Z,41.04
2023-06-07T16:26:16.846Z,38.19
2023-06-07T16:28:47.926Z,39.54
2023-06-07T16:31:14.870Z,40.09
2023-06-07T16:33:41.722Z,40.29
2023-06-07T16:36:08.780Z,40.43
2023-06-07T16:38:35.954Z,40.42
2023-06-07T16:41:02.714Z,40.11
2023-06-07T16:43:30.806Z,38.96
2023-06-07T16:45:57.681Z,38.11
2023-06-07T16:48:24.730Z,36.96
2023-06-07T16:50:51.521Z,35.41
2023-06-07T16:53:18.285Z,34.32
2023-06-07T16:55:45.050Z,33.39
2023-06-07T16:58:11.820Z,32.60
2023-06-07T17:00:38.523Z,32.01
2023-06-07T17:03:05.747Z,31.80
2023-06-07T17:05:33.780Z,31.32
2023-06-07T17:08:00.560Z,30.86
2023-06-07T17:10:29.705Z,30.64
2023-06-07T17:12:56.490Z,30.44
2023-06-07T17:15:23.184Z,30.21
2023-06-07T17:17:50.031Z,30.03
2023-06-07T17:20:16.809Z,29.75
2023-06-07T17:22:43.959Z,29.35
2023-06-07T17:25:10.832Z,29.17
2023-06-07T17:27:37.646Z,28.84
2023-06-07T17:30:05.076Z,28.69
2023-06-07T17:32:32.053Z,28.52
2023-06-07T17:34:58.786Z,28.45
2023-06-07T17:37:25.530Z,28.34
2023-06-07T17:39:52.766Z,28.31
2023-06-07T17:42:19.558Z,28.28
2023-06-07T17:44:46.324Z,28.15
2023-06-07T17:47:15.115Z,27.98
2023-06-07T17:49:43.549Z,27.84
2023-06-07T17:52:21.716Z,27.74
2023-06-07T17:54:50.469Z,27.55
2023-06-07T17:57:17.128Z,27.27
2023-06-07T17:59:43.812Z,27.43
2023-06-07T18:02:10.514Z,27.32
2023-06-07T18:04:37.907Z,27.39
2023-06-07T18:07:05.414Z,27.47
2023-06-07T18:09:32.193Z,27.48
2023-06-07T18:11:58.882Z,27.49
2023-06-07T18:14:25.769Z,27.35
2023-06-07T18:16:52.684Z,27.08
2023-06-07T18:19:19.344Z,27.10
2023-06-07T18:21:46.219Z,26.68
2023-06-07T18:24:12.916Z,26.68
2023-06-07T18:26:39.802Z,26.77
2023-06-07T18:29:06.442Z,26.76
2023-06-07T18:31:33.166Z,26.83
2023-06-07T18:33:59.816Z,26.80
2023-06-07T18:36:26.574Z,26.72
2023-06-07T18:38:53.349Z,26.68
2023-06-07T18:41:20.155Z,26.74
2023-06-07T18:43:46.860Z,26.77
2023-06-07T18:46:13.809Z,26.65
2023-06-07T18:48:40.902Z,26.70
2023-06-07T18:51:07.583Z,26.69
2023-06-07T18:53:34.291Z,26.67
2023-06-07T18:56:00.987Z,26.68
2023-06-07T18:58:27.709Z,26.73
2023-06-07T19:00:54.732Z,26.66
2023-06-07T19:03:21.549Z,26.65
2023-06-07T19:05:48.381Z,26.47
2023-06-07T19:08:15.248Z,26.51
2023-06-07T19:10:42.123Z,26.53
2023-06-07T19:13:09.353Z,26.58
2023-06-07T19:15:36.072Z,26.58
2023-06-07T19:18:02.804Z,26.63
2023-06-07T19:20:29.645Z,26.61
2023-06-07T19:22:56.382Z,26.56
2023-06-07T19:25:23.128Z,26.58
2023-06-07T19:27:49.868Z,26.57
2023-06-07T19:30:17.061Z,26.61
2023-06-07T19:32:43.979Z,26.62
2023-06-07T19:35:10.680Z,26.54
2023-06-07T19:37:37.459Z,26.55
2023-06-07T19:40:06.949Z,26.47
2023-06-07T19:42:33.746Z,26.46
2023-06-07T19:45:00.392Z,26.44
2023-06-07T19:47:27.151Z,26.44
2023-06-07T19:49:53.836Z,26.46
2023-06-07T19:52:20.546Z,26.37
2023-06-07T19:54:47.287Z,26.27
2023-06-07T19:57:14.131Z,26.26
2023-06-07T19:59:41.212Z,26.16
2023-06-07T20:02:08.018Z,26.11
2023-06-07T20:04:35.743Z,26.06
2023-06-07T20:07:03.298Z,26.02
2023-06-07T20:09:34.243Z,26.01
2023-06-07T20:12:01.035Z,25.91
2023-06-07T20:14:27.713Z,25.78
2023-06-07T20:16:54.529Z,25.74
2023-06-07T20:19:21.367Z,25.71
2023-06-07T20:21:48.148Z,25.61
2023-06-07T20:24:14.936Z,25.55
2023-06-07T20:26:43.316Z,25.46
2023-06-07T20:29:10.109Z,25.40
2023-06-07T20:31:36.849Z,25.25
2023-06-07T20:34:03.587Z,25.07
2023-06-07T20:36:30.298Z,25.11
2023-06-07T20:38:57.028Z,25.01
2023-06-07T20:41:23.783Z,24.95
2023-06-07T20:43:50.814Z,24.93
2023-06-07T20:46:17.483Z,24.88
2023-06-07T20:48:44.226Z,24.87
2023-06-07T20:51:10.932Z,24.82
2023-06-07T20:53:38.896Z,24.87
2023-06-07T20:56:05.666Z,24.81
2023-06-07T20:58:32.469Z,24.70
2023-06-07T21:00:59.142Z,24.74
2023-06-07T21:03:26.045Z,24.72
2023-06-07T21:05:54.338Z,24.56
2023-06-07T21:08:21.028Z,24.64
2023-06-07T21:10:47.739Z,24.62
2023-06-07T21:13:14.523Z,24.52
2023-06-07T21:15:41.177Z,24.49
2023-06-07T21:18:07.841Z,24.51
2023-06-07T21:20:34.702Z,24.54
2023-06-07T21:23:01.486Z,24.44
2023-06-07T21:25:28.148Z,24.42
2023-06-07T21:27:55.838Z,24.43
2023-06-07T21:30:22.598Z,24.13
2023-06-07T21:32:49.435Z,24.30
2023-06-07T21:35:16.192Z,24.32
2023-06-07T21:37:43.088Z,24.38
2023-06-07T21:40:10.244Z,24.31
2023-06-07T21:42:36.887Z,24.19
2023-06-07T21:45:04.770Z,24.17
2023-06-07T21:47:31.550Z,24.18
2023-06-07T21:49:58.313Z,24.18
2023-06-07T21:52:25.129Z,24.15
2023-06-07T21:54:51.854Z,24.10
2023-06-07T21:57:18.547Z,24.08
2023-06-07T21:59:45.313Z,24.04
2023-06-07T22:02:12.058Z,24.00
2023-06-07T22:04:38.834Z,23.98
2023-06-07T22:07:05.704Z,23.97
2023-06-07T22:09:32.456Z,24.03
2023-06-07T22:11:59.289Z,24.04
2023-06-07T22:14:26.070Z,23.99
2023-06-07T22:16:52.834Z,23.96
2023-06-07T22:19:19.515Z,23.92
2023-06-07T22:21:46.806Z,23.91
2023-06-07T22:24:13.695Z,23.86
2023-06-07T22:26:40.536Z,23.81
2023-06-07T22:29:07.657Z,23.77
2023-06-07T22:31:34.409Z,23.73
2023-06-07T22:34:06.863Z,23.67
2023-06-07T22:36:36.401Z,23.65
2023-06-07T22:39:03.131Z,23.60
2023-06-07T22:41:29.833Z,23.57
2023-06-07T22:43:56.683Z,23.51
2023-06-07T22:46:23.748Z,23.49
2023-06-07T22:48:50.521Z,23.47
2023-06-07T22:51:17.361Z,23.44
2023-06-07T22:53:44.717Z,23.42
2023-06-07T22:56:11.473Z,23.36
2023-06-07T22:58:38.583Z,23.30
2023-06-07T23:01:05.322Z,23.30
2023-06-07T23:03:32.433Z,23.30
2023-06-07T23:06:00.750Z,23.25
2023-06-07T23:08:27.874Z,23.24
2023-06-07T23:10:55.075Z,23.26
2023-06-07T23:13:22.212Z,23.18
2023-06-07T23:15:51.643Z,23.14
2023-06-07T23:18:18.413Z,23.15
2023-06-07T23:20:45.583Z,23.16
2023-06-07T23:25:41.882Z,23.12
2023-06-07T23:28:08.667Z,23.05
2023-06-07T23:30:37.657Z,23.02
2023-06-07T23:33:05.762Z,23.00
2023-06-07T23:35:32.460Z,23.13
2023-06-07T23:37:59.174Z,23.09
2023-06-07T23:40:25.853Z,22.99
2023-06-07T23:42:52.539Z,22.95
2023-06-07T23:45:19.868Z,23.03
2023-06-07T23:47:46.800Z,23.04
2023-06-07T23:50:13.651Z,22.96
2023-06-07T23:52:40.839Z,22.97
2023-06-07T23:55:08.015Z,22.94
2023-06-07T23:57:34.754Z,22.89
